Time;durP1;ratioP1;P1;durP2;ratioP2;P2;SDS_P1;SDS_P2;PMS_P1;PMS_P2;Temp;Humidity;BMP_temperature;BMP_pressure;BME280_temperature;BME280_humidity;BME280_pressure;Samples;Min_cycle;Max_cycle;Signal;HPM_P1;HPM_P2
2021/11/19 00:01:09;;;;;;;12.32;7.50;;;9.10;99.90;;;;;;5030421;28;20037;-70
2021/11/19 00:04:16;;;;;;;15.45;6.43;;;9.00;99.90;;;;;;5031118;28;20042;-70
2021/11/19 00:07:20;;;;;;;9.60;6.38;;;9.00;99.90;;;;;;5030989;28;20037;-70
2021/11/19 00:10:25;;;;;;;23.25;9.07;;;9.00;99.90;;;;;;5030622;28;20045;-70
2021/11/19 00:13:29;;;;;;;20.58;10.55;;;9.10;99.90;;;;;;5031016;28;20503;-70
2021/11/19 00:16:34;;;;;;;18.45;7.97;;;9.10;99.90;;;;;;5030845;28;20049;-70
2021/11/19 00:19:42;;;;;;;14.55;7.35;;;9.00;99.90;;;;;;5030403;28;20395;-70
2021/11/19 00:22:46;;;;;;;14.13;7.97;;;9.00;99.90;;;;;;5030711;28;20699;-70
2021/11/19 00:25:51;;;;;;;20.83;11.27;;;9.00;99.90;;;;;;5030825;28;20222;-70
2021/11/19 00:28:56;;;;;;;26.17;12.73;;;9.00;99.90;;;;;;5030242;28;20411;-70
2021/11/19 00:31:59;;;;;;;35.55;14.45;;;8.90;99.90;;;;;;5018365;28;20120;-70
2021/11/19 00:35:05;;;;;;;32.50;13.90;;;8.90;99.90;;;;;;5041332;28;20040;-70
2021/11/19 00:38:12;;;;;;;21.40;12.45;;;8.90;99.90;;;;;;5029790;28;20127;-70
2021/11/19 00:41:17;;;;;;;19.77;11.55;;;8.80;99.90;;;;;;5030648;28;20423;-70
2021/11/19 00:44:22;;;;;;;20.65;12.10;;;8.80;99.90;;;;;;5030387;28;20033;-70
2021/11/19 00:47:27;;;;;;;24.20;11.73;;;8.80;99.90;;;;;;5041061;28;20044;-70
2021/11/19 00:50:37;;;;;;;28.77;13.98;;;8.80;99.90;;;;;;5029486;28;20515;-70
2021/11/19 00:53:44;;;;;;;27.00;14.23;;;8.80;99.90;;;;;;5030881;28;20514;-70
2021/11/19 00:56:51;;;;;;;27.73;14.88;;;8.80;99.90;;;;;;5030347;28;20334;-70
2021/11/19 00:59:56;;;;;;;34.63;20.70;;;8.70;99.90;;;;;;5029273;28;20056;-70
2021/11/19 01:03:00;;;;;;;34.95;22.40;;;8.70;99.90;;;;;;5030407;28;20064;-70
2021/11/19 01:06:04;;;;;;;38.78;22.55;;;8.70;99.90;;;;;;5030413;28;20067;-70
2021/11/19 01:09:13;;;;;;;33.33;22.75;;;8.70;99.90;;;;;;5028565;28;20044;-70
2021/11/19 01:12:20;;;;;;;19.85;12.23;;;8.60;99.90;;;;;;5030168;28;20383;-70
2021/11/19 01:15:38;;;;;;;22.88;12.57;;;8.60;99.90;;;;;;5040988;28;20045;-70
2021/11/19 01:18:47;;;;;;;29.65;13.13;;;8.70;99.90;;;;;;5028569;28;20072;-70
2021/11/19 01:22:00;;;;;;;25.95;14.27;;;8.70;99.90;;;;;;5040544;28;20064;-70
2021/11/19 01:25:09;;;;;;;25.08;13.80;;;8.70;99.90;;;;;;5029381;28;20048;-70
2021/11/19 01:28:14;;;;;;;26.77;13.40;;;8.70;99.90;;;;;;5028376;28;20056;-70
2021/11/19 01:31:35;;;;;;;21.58;12.45;;;8.70;99.90;;;;;;5029154;28;20068;-70
2021/11/19 01:34:48;;;;;;;24.00;12.15;;;8.70;99.90;;;;;;5029051;28;20056;-70
2021/11/19 01:38:26;;;;;;;20.65;11.40;;;8.70;99.90;;;;;;5029385;28;20052;-70
2021/11/19 01:41:49;;;;;;;21.17;11.38;;;8.70;99.90;;;;;;5029117;28;20040;-70
2021/11/19 01:45:06;;;;;;;22.67;11.05;;;8.60;99.90;;;;;;5040277;28;20052;-70
2021/11/19 01:48:16;;;;;;;18.85;10.70;;;8.60;99.90;;;;;;5028307;28;20056;-70
2021/11/19 01:51:26;;;;;;;24.35;12.27;;;8.60;99.90;;;;;;5029762;28;20062;-70
2021/11/19 01:54:30;;;;;;;19.17;11.27;;;8.60;99.90;;;;;;5028877;28;20057;-70
2021/11/19 01:57:40;;;;;;;18.25;10.25;;;8.60;99.90;;;;;;5040127;28;20052;-70
2021/11/19 02:00:51;;;;;;;18.92;10.63;;;8.60;99.90;;;;;;5029183;28;20064;-70
2021/11/19 02:04:00;;;;;;;19.73;10.43;;;8.60;99.90;;;;;;5029018;28;20056;-70
2021/11/19 02:07:19;;;;;;;20.65;12.10;;;8.60;99.90;;;;;;5029025;28;20056;-70
2021/11/19 02:11:07;;;;;;;18.35;10.93;;;8.60;99.90;;;;;;5029102;28;20392;-70
2021/11/19 02:14:28;;;;;;;18.27;11.35;;;8.50;99.90;;;;;;5028891;28;20060;-70
2021/11/19 02:17:33;;;;;;;21.42;11.93;;;8.30;99.90;;;;;;5028857;28;20044;-70
2021/11/19 02:20:42;;;;;;;20.83;12.48;;;8.30;99.90;;;;;;5028665;28;20518;-70
2021/11/19 02:24:04;;;;;;;20.45;11.77;;;8.20;99.90;;;;;;5029169;28;20048;-70
2021/11/19 02:27:20;;;;;;;20.95;12.52;;;8.10;99.90;;;;;;5032482;28;20033;-70
2021/11/19 02:30:32;;;;;;;20.63;11.20;;;8.00;99.90;;;;;;5032130;28;20068;-70
2021/11/19 02:33:39;;;;;;;24.85;12.68;;;7.90;99.90;;;;;;5032103;28;20044;-70
2021/11/19 02:36:55;;;;;;;21.83;12.18;;;7.80;99.90;;;;;;5043595;28;20044;-70
2021/11/19 02:40:05;;;;;;;21.95;11.82;;;7.90;99.90;;;;;;5031545;28;20045;-70
2021/11/19 02:43:22;;;;;;;29.85;14.48;;;8.00;99.90;;;;;;5031586;28;20077;-70
2021/11/19 02:46:31;;;;;;;28.17;14.88;;;8.10;99.90;;;;;;5032047;28;20064;-70
2021/11/19 02:49:38;;;;;;;28.30;13.43;;;8.10;99.90;;;;;;5031174;28;20055;-70
2021/11/19 02:52:46;;;;;;;27.05;14.30;;;8.20;99.90;;;;;;5032934;28;20491;-70
2021/11/19 02:55:54;;;;;;;23.83;12.27;;;8.10;99.90;;;;;;5043377;28;20052;-70
2021/11/19 02:59:01;;;;;;;23.08;12.35;;;8.10;99.90;;;;;;5031209;28;20527;-69
2021/11/19 03:02:11;;;;;;;25.70;13.32;;;8.00;99.90;;;;;;5031824;28;20056;-70
2021/11/19 03:05:18;;;;;;;23.15;13.43;;;8.00;99.90;;;;;;5031320;28;20044;-70
2021/11/19 03:08:22;;;;;;;23.95;12.75;;;8.00;99.90;;;;;;5031681;28;20063;-70
2021/11/19 03:11:31;;;;;;;24.48;12.40;;;7.80;99.90;;;;;;5042876;28;20040;-70
2021/11/19 03:14:36;;;;;;;25.58;13.05;;;7.70;99.90;;;;;;5019389;28;20546;-70
2021/11/19 03:17:41;;;;;;;23.05;13.25;;;7.70;99.90;;;;;;5032089;28;20044;-70
2021/11/19 03:20:49;;;;;;;20.63;12.18;;;7.60;99.90;;;;;;5031010;28;20060;-70
2021/11/19 03:23:55;;;;;;;22.13;11.68;;;7.60;99.90;;;;;;5032046;28;20339;-70
2021/11/19 03:27:00;;;;;;;21.95;11.50;;;7.50;99.90;;;;;;5030830;28;20044;-70
2021/11/19 03:30:08;;;;;;;25.75;12.05;;;7.40;99.90;;;;;;5030034;28;20068;-70
2021/11/19 03:33:17;;;;;;;25.23;12.95;;;7.40;99.90;;;;;;5031147;28;20044;-70
2021/11/19 03:36:23;;;;;;;26.55;13.10;;;7.30;99.90;;;;;;5031009;28;20037;-70
2021/11/19 03:39:29;;;;;;;25.23;13.93;;;7.30;99.90;;;;;;5030000;28;20037;-70
2021/11/19 03:42:33;;;;;;;33.97;16.85;;;7.40;99.90;;;;;;5031126;28;20052;-70
2021/11/19 03:45:43;;;;;;;30.17;15.35;;;7.40;99.90;;;;;;5030971;28;20052;-70
2021/11/19 03:48:47;;;;;;;28.63;16.30;;;7.40;99.90;;;;;;5030212;28;20044;-70
2021/11/19 03:52:01;;;;;;;32.97;16.48;;;7.50;99.90;;;;;;5030632;28;20392;-70
2021/11/19 03:55:32;;;;;;;32.63;15.20;;;7.60;99.90;;;;;;5041871;28;20400;-70
2021/11/19 03:58:39;;;;;;;28.95;15.27;;;7.60;99.90;;;;;;5041720;28;20076;-70
2021/11/19 04:01:46;;;;;;;31.38;15.68;;;7.70;99.90;;;;;;5030726;28;20111;-70
2021/11/19 04:04:51;;;;;;;35.97;16.60;;;7.80;99.90;;;;;;5030589;28;20052;-70
2021/11/19 04:07:56;;;;;;;32.95;17.35;;;7.90;99.90;;;;;;5030251;28;20064;-70
2021/11/19 04:11:07;;;;;;;31.90;16.95;;;7.90;99.90;;;;;;5029966;28;20053;-70
2021/11/19 04:14:12;;;;;;;28.30;15.43;;;7.80;99.90;;;;;;5029837;28;20395;-70
2021/11/19 04:17:16;;;;;;;24.00;13.60;;;7.70;99.90;;;;;;5041934;28;20494;-70
2021/11/19 04:20:20;;;;;;;23.52;13.23;;;7.60;99.90;;;;;;5030091;28;20105;-70
2021/11/19 04:23:26;;;;;;;29.83;15.40;;;7.60;99.90;;;;;;5030402;28;20052;-70
2021/11/19 04:26:32;;;;;;;34.25;16.35;;;7.60;99.90;;;;;;5030029;28;20044;-70
2021/11/19 04:29:36;;;;;;;26.60;14.98;;;7.60;99.90;;;;;;5029980;28;20052;-70
2021/11/19 04:32:53;;;;;;;28.95;15.65;;;7.50;99.90;;;;;;5041657;28;20052;-70
2021/11/19 04:35:58;;;;;;;24.80;12.82;;;7.50;99.90;;;;;;5029610;28;20043;-70
2021/11/19 04:39:04;;;;;;;28.25;15.02;;;7.50;99.90;;;;;;5029246;28;20049;-70
2021/11/19 04:42:08;;;;;;;24.10;13.45;;;7.50;99.90;;;;;;5030216;28;20071;-70
2021/11/19 04:45:16;;;;;;;23.67;13.70;;;7.60;99.90;;;;;;5041545;28;20503;-70
2021/11/19 04:48:24;;;;;;;27.38;15.77;;;7.60;99.90;;;;;;5028775;28;20395;-70
2021/11/19 04:51:31;;;;;;;24.63;13.98;;;7.60;99.90;;;;;;5029859;28;20117;-70
2021/11/19 04:54:36;;;;;;;26.95;14.10;;;7.50;99.90;;;;;;5029737;28;20044;-70
2021/11/19 04:57:41;;;;;;;31.52;15.15;;;7.60;99.90;;;;;;5029267;28;20060;-70
2021/11/19 05:00:50;;;;;;;24.90;14.00;;;7.60;99.90;;;;;;5029591;28;20395;-70
2021/11/19 05:04:09;;;;;;;27.83;14.85;;;7.60;99.90;;;;;;5030394;28;20044;-70
2021/11/19 05:07:16;;;;;;;24.88;13.18;;;7.60;99.90;;;;;;5029613;28;20052;-70
2021/11/19 05:10:21;;;;;;;31.98;16.35;;;7.60;99.90;;;;;;5028726;28;20044;-70
2021/11/19 05:13:31;;;;;;;29.02;15.57;;;7.60;99.90;;;;;;5040604;28;20032;-70
2021/11/19 05:16:40;;;;;;;27.40;14.85;;;7.60;99.90;;;;;;5029408;28;20044;-70
2021/11/19 05:19:45;;;;;;;32.42;17.23;;;7.60;99.90;;;;;;5029080;28;20053;-70
2021/11/19 05:22:50;;;;;;;31.98;16.38;;;7.70;99.90;;;;;;5029556;28;20526;-70
2021/11/19 05:25:55;;;;;;;30.50;15.77;;;7.60;99.90;;;;;;5029228;28;20064;-70
2021/11/19 05:29:02;;;;;;;31.50;15.80;;;7.60;99.90;;;;;;5028544;28;20052;-70
2021/11/19 05:32:07;;;;;;;33.83;16.00;;;7.40;99.90;;;;;;5026767;28;20052;-70
2021/11/19 05:35:14;;;;;;;28.08;16.30;;;7.30;99.90;;;;;;5029933;28;20495;-70
2021/11/19 05:38:20;;;;;;;38.35;17.38;;;7.10;99.90;;;;;;5028548;28;20033;-70
2021/11/19 05:41:26;;;;;;;28.98;16.17;;;7.00;99.90;;;;;;5028914;28;20041;-70
2021/11/19 05:44:32;;;;;;;41.25;22.33;;;6.90;99.90;;;;;;5028827;28;20392;-71
2021/11/19 05:48:12;;;;;;;68.68;18.95;;;6.80;99.90;;;;;;5028824;28;20048;-71
2021/11/19 05:51:17;;;;;;;90.22;21.55;;;6.70;99.90;;;;;;5028650;28;20511;-70
2021/11/19 05:54:25;;;;;;;26.20;14.13;;;6.50;99.90;;;;;;5029097;28;20049;-70
2021/11/19 05:57:30;;;;;;;39.38;20.00;;;6.50;99.90;;;;;;5028949;28;20400;-70
2021/11/19 06:00:51;;;;;;;47.28;23.23;;;6.40;99.90;;;;;;5033027;28;20502;-70
2021/11/19 06:04:07;;;;;;;35.53;17.80;;;6.30;99.90;;;;;;5032876;28;20049;-70
2021/11/19 06:07:30;;;;;;;82.63;18.70;;;6.20;99.90;;;;;;5033450;28;20053;-70
2021/11/19 06:10:41;;;;;;;75.25;14.20;;;6.20;99.90;;;;;;5044283;28;20100;-70
2021/11/19 06:14:02;;;;;;;48.42;11.60;;;6.10;99.90;;;;;;5033712;28;20048;-70
2021/11/19 06:17:15;;;;;;;14.18;8.45;;;6.10;99.90;;;;;;5033837;28;20068;-70
2021/11/19 06:20:26;;;;;;;14.38;8.50;;;5.90;99.90;;;;;;5033018;28;20041;-70
2021/11/19 06:23:43;;;;;;;22.20;11.07;;;5.90;99.90;;;;;;5044115;28;20053;-70
2021/11/19 06:26:48;;;;;;;17.77;10.05;;;6.00;99.90;;;;;;5032255;28;20387;-70
2021/11/19 06:29:57;;;;;;;23.38;12.20;;;6.20;99.90;;;;;;5043604;28;20052;-70
2021/11/19 06:33:01;;;;;;;24.88;11.77;;;6.30;99.90;;;;;;5032639;28;20052;-70
2021/11/19 06:36:08;;;;;;;22.55;12.88;;;6.40;99.90;;;;;;5032113;28;20056;-70
2021/11/19 06:39:15;;;;;;;22.92;12.57;;;6.50;99.90;;;;;;5023543;28;20048;-70
2021/11/19 06:42:20;;;;;;;24.77;12.73;;;6.60;99.90;;;;;;5023607;28;20053;-70
2021/11/19 06:45:51;;;;;;;28.65;13.95;;;6.70;99.90;;;;;;5015593;28;20219;-70
2021/11/19 06:49:21;;;;;;;30.45;14.32;;;7.50;99.90;;;;;;5017341;28;20512;-70
2021/11/19 06:52:49;;;;;;;19.33;10.88;;;10.10;99.90;;;;;;5023611;28;20228;-70
2021/11/19 06:56:16;;;;;;;16.40;10.45;;;12.50;99.90;;;;;;5012933;28;20040;-71
2021/11/19 06:59:41;;;;;;;13.63;8.75;;;14.50;99.90;;;;;;5012792;28;20053;-71
2021/11/19 07:02:45;;;;;;;18.38;8.43;;;15.50;99.90;;;;;;5025905;28;20112;-71
2021/11/19 07:05:51;;;;;;;10.10;6.85;;;16.30;99.90;;;;;;5030043;28;20405;-71
2021/11/19 07:09:01;;;;;;;8.10;5.20;;;17.00;99.90;;;;;;5029304;28;20048;-71
2021/11/19 07:12:09;;;;;;;12.68;7.35;;;18.00;99.90;;;;;;5038474;28;20034;-71
2021/11/19 07:15:17;;;;;;;7.07;5.15;;;19.30;99.90;;;;;;5042787;28;20039;-71
2021/11/19 07:18:22;;;;;;;7.90;5.10;;;20.10;99.90;;;;;;5031815;28;20033;-71
2021/11/19 07:21:27;;;;;;;10.13;7.72;;;21.50;99.90;;;;;;5026226;28;20037;-71
2021/11/19 07:24:35;;;;;;;7.68;4.80;;;22.90;97.50;;;;;;5026072;28;20044;-71
2021/11/19 07:27:47;;;;;;;5.68;4.40;;;23.40;94.90;;;;;;5039918;28;20029;-71
2021/11/19 07:30:54;;;;;;;7.60;5.47;;;22.80;94.50;;;;;;5027901;28;20041;-71
2021/11/19 07:33:59;;;;;;;6.35;4.68;;;22.20;95.10;;;;;;5031282;28;20033;-71
2021/11/19 07:37:23;;;;;;;9.27;6.65;;;22.00;96.50;;;;;;5029750;28;20360;-71
2021/11/19 07:40:50;;;;;;;10.30;7.00;;;22.40;95.30;;;;;;5031367;28;20041;-71
2021/11/19 07:43:57;;;;;;;8.57;6.05;;;22.70;95.40;;;;;;5028835;28;20080;-71
2021/11/19 07:47:13;;;;;;;7.18;5.75;;;24.10;94.30;;;;;;5029416;28;20037;-72
2021/11/19 07:50:25;;;;;;;5.60;4.68;;;25.20;93.10;;;;;;5038950;28;20029;-72
2021/11/19 07:53:30;;;;;;;5.63;4.30;;;24.90;92.50;;;;;;5032286;28;20490;-71
2021/11/19 07:56:36;;;;;;;8.25;5.13;;;25.70;91.60;;;;;;5029456;28;20044;-71
2021/11/19 07:59:41;;;;;;;7.97;6.43;;;26.40;90.50;;;;;;5027459;28;20045;-71
2021/11/19 08:02:46;;;;;;;6.72;5.68;;;26.50;90.30;;;;;;5026592;28;20048;-71
2021/11/19 08:05:56;;;;;;;5.53;4.82;;;27.20;89.70;;;;;;5035651;28;20045;-71
2021/11/19 08:09:05;;;;;;;5.80;4.93;;;26.50;87.90;;;;;;5029392;28;20036;-71
2021/11/19 08:12:09;;;;;;;5.68;3.80;;;25.80;88.40;;;;;;5039103;28;20287;-71
2021/11/19 08:15:19;;;;;;;3.60;3.30;;;26.60;87.50;;;;;;5029800;28;20396;-71
2021/11/19 08:18:27;;;;;;;3.65;3.28;;;28.10;85.10;;;;;;5026672;28;20038;-71
2021/11/19 08:21:32;;;;;;;5.38;3.55;;;28.80;84.40;;;;;;5010308;28;20522;-72
2021/11/19 08:24:37;;;;;;;6.00;4.93;;;29.60;83.20;;;;;;5027272;28;20056;-72
2021/11/19 08:27:45;;;;;;;3.90;3.58;;;30.20;80.60;;;;;;5029547;28;20459;-72
2021/11/19 08:30:50;;;;;;;7.78;4.78;;;30.30;78.80;;;;;;5022683;28;20037;-72
2021/11/19 08:33:55;;;;;;;5.97;3.83;;;29.90;79.50;;;;;;5029117;28;20029;-72
2021/11/19 08:37:01;;;;;;;3.60;3.00;;;29.80;80.30;;;;;;5029005;28;20463;-72
2021/11/19 08:40:09;;;;;;;5.18;3.03;;;29.60;79.10;;;;;;5029761;28;20052;-71
2021/11/19 08:43:16;;;;;;;3.60;3.15;;;27.00;81.00;;;;;;5028793;28;20038;-72
2021/11/19 08:46:32;;;;;;;4.22;2.72;;;27.50;81.90;;;;;;5026868;28;20045;-72
2021/11/19 08:49:37;;;;;;;4.78;2.78;;;28.20;80.10;;;;;;5028434;28;20044;-72
2021/11/19 08:52:42;;;;;;;4.22;2.72;;;27.70;81.20;;;;;;5029824;28;20041;-71
2021/11/19 08:55:52;;;;;;;6.63;2.75;;;26.50;82.50;;;;;;5027039;28;20026;-72
2021/11/19 08:59:00;;;;;;;4.65;3.05;;;28.00;80.60;;;;;;5027933;28;20038;-71
2021/11/19 09:02:11;;;;;;;6.53;2.67;;;28.60;80.00;;;;;;5027489;28;20040;-71
2021/11/19 09:05:15;;;;;;;;;;;28.70;79.00;;;;;;5029658;28;20044;-71
2021/11/19 09:08:22;;;;;;;5.57;2.55;;;26.80;78.50;;;;;;5028332;28;19924;-71
2021/11/19 09:11:27;;;;;;;2.50;2.30;;;25.40;81.70;;;;;;5028628;28;20045;-71
2021/11/19 09:14:31;;;;;;;3.17;2.50;;;25.10;83.40;;;;;;5029560;28;20499;-71
2021/11/19 09:17:47;;;;;;;3.67;2.25;;;25.30;83.00;;;;;;5027731;28;20455;-71
2021/11/19 09:21:19;;;;;;;4.47;2.75;;;24.90;83.10;;;;;;5028391;28;20071;-71
2021/11/19 09:24:29;;;;;;;3.75;3.17;;;26.50;82.90;;;;;;5028644;28;20058;-71
2021/11/19 09:27:34;;;;;;;6.75;2.83;;;28.60;80.30;;;;;;5024918;28;20356;-71
2021/11/19 09:30:43;;;;;;;4.43;3.53;;;28.70;78.60;;;;;;5030715;28;20116;-71
2021/11/19 09:33:49;;;;;;;3.50;2.70;;;30.80;78.10;;;;;;5031106;28;20033;-71
2021/11/19 09:36:53;;;;;;;3.03;2.72;;;30.90;76.90;;;;;;5034347;28;20045;-70
2021/11/19 09:39:57;;;;;;;4.13;2.85;;;31.70;77.20;;;;;;5033335;28;20056;-72
2021/11/19 09:43:13;;;;;;;5.55;2.92;;;32.90;75.50;;;;;;5030379;28;20048;-71
2021/11/19 09:46:36;;;;;;;7.00;4.10;;;32.50;74.80;;;;;;5032916;28;20056;-71
2021/11/19 09:50:04;;;;;;;7.22;4.47;;;30.10;77.00;;;;;;5032440;28;20490;-71
2021/11/19 09:53:48;;;;;;;4.32;3.92;;;31.00;77.70;;;;;;5028308;28;20048;-71
2021/11/19 09:57:07;;;;;;;4.30;3.88;;;32.30;76.00;;;;;;5033085;28;20048;-72
2021/11/19 10:00:31;;;;;;;9.93;4.25;;;33.10;74.80;;;;;;5033832;28;20048;-71
2021/11/19 10:03:41;;;;;;;4.10;3.50;;;33.30;73.60;;;;;;5032496;28;20042;-71
2021/11/19 10:06:55;;;;;;;3.88;3.22;;;33.90;72.70;;;;;;5032366;28;20041;-71
2021/11/19 10:10:07;;;;;;;3.28;2.97;;;34.70;71.70;;;;;;5033573;28;20045;-72
2021/11/19 10:13:38;;;;;;;3.88;3.47;;;33.50;71.00;;;;;;5027850;28;20036;-71
2021/11/19 10:16:59;;;;;;;4.63;3.07;;;29.40;74.30;;;;;;5033158;28;20041;-71
2021/11/19 10:20:23;;;;;;;6.65;2.53;;;29.70;76.10;;;;;;5025962;28;20053;-71
2021/11/19 10:23:36;;;;;;;3.17;2.53;;;29.60;75.90;;;;;;5027647;28;20037;-71
2021/11/19 10:26:41;;;;;;;3.75;2.97;;;31.50;74.20;;;;;;5030225;28;20038;-71
2021/11/19 10:29:51;;;;;;;3.83;2.88;;;32.50;72.70;;;;;;5026668;28;20411;-71
2021/11/19 10:32:59;;;;;;;3.85;3.20;;;31.90;73.40;;;;;;5031520;28;20037;-71
2021/11/19 10:36:28;;;;;;;4.93;3.28;;;33.80;72.60;;;;;;5026982;28;20044;-72
2021/11/19 10:39:42;;;;;;;5.15;3.30;;;32.50;72.50;;;;;;5030472;28;20041;-72
2021/11/19 10:43:34;;;;;;;4.50;4.10;;;33.80;71.90;;;;;;5032400;28;20048;-71
2021/11/19 10:46:56;;;;;;;6.28;4.03;;;34.70;69.20;;;;;;5020417;28;20040;-71
2021/11/19 10:50:43;;;;;;;7.55;4.13;;;34.60;69.00;;;;;;5022291;28;20656;-71
2021/11/19 10:54:31;;;;;;;5.30;3.95;;;34.60;68.90;;;;;;5028829;28;20044;-71
2021/11/19 10:58:26;;;;;;;4.53;3.80;;;33.50;69.00;;;;;;5022133;28;20045;-71
2021/11/19 11:01:39;;;;;;;5.15;3.50;;;35.00;68.90;;;;;;5032840;28;20045;-72
2021/11/19 11:04:56;;;;;;;4.68;4.07;;;36.40;68.20;;;;;;5032336;28;20044;-71
2021/11/19 11:08:18;;;;;;;5.82;3.80;;;29.20;71.90;;;;;;5032378;28;20041;-71
2021/11/19 11:11:22;;;;;;;5.32;4.07;;;31.30;72.80;;;;;;5013266;28;20038;-71
2021/11/19 11:14:32;;;;;;;5.10;4.00;;;28.30;74.60;;;;;;5032322;28;20488;-71
2021/11/19 11:17:48;;;;;;;9.48;4.95;;;29.50;74.10;;;;;;5032112;28;20038;-71
2021/11/19 11:20:52;;;;;;;4.45;3.90;;;30.20;73.80;;;;;;5026996;28;20048;-71
2021/11/19 11:24:09;;;;;;;5.85;4.10;;;31.60;71.80;;;;;;5031698;28;20540;-71
2021/11/19 11:27:40;;;;;;;4.47;4.00;;;29.20;73.60;;;;;;5032081;28;20037;-71
2021/11/19 11:30:59;;;;;;;7.53;4.60;;;30.40;73.60;;;;;;5026410;28;20058;-71
2021/11/19 11:34:10;;;;;;;4.47;3.50;;;31.20;71.60;;;;;;5031518;28;20053;-71
2021/11/19 11:37:16;;;;;;;4.28;3.60;;;32.60;71.90;;;;;;5031452;28;20053;-71
2021/11/19 11:41:01;;;;;;;4.38;3.78;;;34.10;69.10;;;;;;5030120;28;20045;-71
2021/11/19 11:44:22;;;;;;;4.72;3.58;;;34.60;68.50;;;;;;5016864;28;20361;-72
2021/11/19 11:47:48;;;;;;;4.60;3.40;;;35.70;68.10;;;;;;5030727;28;20050;-71
2021/11/19 11:51:01;;;;;;;4.40;3.58;;;36.80;66.30;;;;;;5031552;28;20052;-72
2021/11/19 11:54:52;;;;;;;4.38;3.20;;;37.30;66.50;;;;;;5031666;28;20041;-71
2021/11/19 11:58:09;;;;;;;4.53;3.35;;;37.70;65.30;;;;;;5020443;28;20052;-72
2021/11/19 12:01:46;;;;;;;3.45;3.15;;;37.40;65.10;;;;;;5034268;28;20545;-70
2021/11/19 12:05:17;;;;;;;4.05;3.63;;;36.60;66.50;;;;;;5046178;28;20033;-72
2021/11/19 12:08:36;;;;;;;3.47;2.92;;;37.10;65.60;;;;;;5034083;28;20040;-72
2021/11/19 12:12:14;;;;;;;3.28;2.90;;;37.30;63.90;;;;;;5049096;28;20044;-72
2021/11/19 12:15:39;;;;;;;3.50;2.60;;;38.20;63.70;;;;;;5029196;28;20546;-72
2021/11/19 12:18:50;;;;;;;8.55;3.20;;;38.30;63.00;;;;;;5028423;28;20044;-71
2021/11/19 12:22:28;;;;;;;5.05;2.80;;;38.40;61.90;;;;;;5027339;28;20040;-72
2021/11/19 12:25:36;;;;;;;3.63;2.80;;;38.50;61.90;;;;;;5037699;28;20052;-70
2021/11/19 12:28:46;;;;;;;3.55;2.90;;;38.50;61.30;;;;;;5037144;28;20033;-72
2021/11/19 12:32:23;;;;;;;5.18;3.90;;;38.50;61.10;;;;;;5039177;28;20064;-70
2021/11/19 12:35:54;;;;;;;4.95;3.08;;;38.80;61.20;;;;;;5011139;28;20057;-72
2021/11/19 12:39:05;;;;;;;3.97;3.33;;;38.80;60.60;;;;;;5019737;28;20050;-72
2021/11/19 12:42:34;;;;;;;4.15;3.28;;;38.70;60.40;;;;;;5028875;28;20052;-72
2021/11/19 12:45:44;;;;;;;4.35;3.20;;;38.70;61.00;;;;;;5030199;28;20041;-72
2021/11/19 12:49:13;;;;;;;4.55;3.05;;;38.60;60.60;;;;;;5029690;28;20393;-72
2021/11/19 12:52:48;;;;;;;5.03;3.13;;;38.80;59.70;;;;;;5030626;28;20057;-72
2021/11/19 12:56:04;;;;;;;4.95;3.72;;;37.20;60.50;;;;;;5028133;28;20048;-72
2021/11/19 12:59:08;;;;;;;4.38;3.45;;;36.40;61.70;;;;;;5028766;28;20443;-72
2021/11/19 13:02:30;;;;;;;5.25;3.30;;;37.10;61.20;;;;;;5025688;28;20120;-72
2021/11/19 13:06:24;;;;;;;5.78;4.10;;;37.30;61.10;;;;;;5015257;28;20615;-72
2021/11/19 13:09:32;;;;;;;5.65;3.22;;;37.00;61.50;;;;;;5027493;28;20037;-72
2021/11/19 13:13:02;;;;;;;4.13;3.40;;;36.80;60.80;;;;;;5030022;28;20048;-72
2021/11/19 13:16:30;;;;;;;3.80;3.50;;;36.90;61.60;;;;;;5029066;28;20037;-71
2021/11/19 13:19:39;;;;;;;4.35;3.60;;;36.80;61.40;;;;;;5029120;28;20060;-72
2021/11/19 13:22:46;;;;;;;3.63;3.13;;;36.50;61.20;;;;;;5016176;28;20050;-72
2021/11/19 13:25:50;;;;;;;4.13;3.40;;;36.60;61.70;;;;;;5027598;28;20035;-72
2021/11/19 13:29:07;;;;;;;3.88;3.38;;;36.80;61.50;;;;;;5028289;28;20038;-72
2021/11/19 13:32:21;;;;;;;6.03;3.38;;;36.70;61.40;;;;;;5022423;28;20052;-72
2021/11/19 13:35:25;;;;;;;4.35;3.95;;;36.60;62.00;;;;;;5028999;28;20041;-72
2021/11/19 13:39:10;;;;;;;5.45;4.25;;;36.10;61.70;;;;;;5028855;28;20033;-72
2021/11/19 13:42:14;;;;;;;4.85;3.70;;;35.60;62.80;;;;;;5033186;28;20504;-72
2021/11/19 13:45:28;;;;;;;5.43;4.13;;;35.10;62.80;;;;;;5024787;28;20400;-72
2021/11/19 13:48:51;;;;;;;6.10;4.22;;;34.80;63.20;;;;;;5023122;28;20447;-72
2021/11/19 13:52:22;;;;;;;5.22;4.10;;;34.60;63.80;;;;;;5027510;28;20034;-72
2021/11/19 13:55:39;;;;;;;7.45;3.97;;;34.30;63.40;;;;;;5023078;28;20041;-72
2021/11/19 13:58:50;;;;;;;6.28;4.20;;;33.80;63.90;;;;;;5025916;28;20044;-72
2021/11/19 14:02:05;;;;;;;6.67;4.10;;;33.80;64.00;;;;;;5023315;28;20030;-72
2021/11/19 14:05:21;;;;;;;5.00;4.45;;;33.70;64.60;;;;;;5021079;28;20045;-72
2021/11/19 14:08:28;;;;;;;5.85;4.20;;;33.50;64.80;;;;;;5038536;28;20049;-72
2021/11/19 14:11:33;;;;;;;9.00;4.68;;;33.00;64.90;;;;;;5028455;28;20372;-72
2021/11/19 14:14:40;;;;;;;6.30;4.05;;;32.60;65.50;;;;;;5012999;28;20038;-72
2021/11/19 14:17:44;;;;;;;5.57;3.92;;;32.60;65.60;;;;;;5026955;28;20044;-72
2021/11/19 14:24:48;;;;;;;6.85;4.47;;;32.20;66.30;;;;;;5034055;28;20046;-72
2021/11/19 14:28:04;;;;;;;4.65;4.07;;;31.70;66.90;;;;;;5034819;28;20040;-71
2021/11/19 14:31:11;;;;;;;8.65;5.03;;;31.20;67.70;;;;;;5033289;28;20041;-72
2021/11/19 14:34:19;;;;;;;6.53;4.60;;;31.00;67.80;;;;;;5032690;28;20045;-72
2021/11/19 14:37:39;;;;;;;5.80;4.45;;;30.80;68.90;;;;;;5031569;28;20048;-72
2021/11/19 14:40:54;;;;;;;7.30;5.50;;;30.70;68.50;;;;;;5032937;28;20041;-72
2021/11/19 14:44:05;;;;;;;5.95;5.18;;;30.10;69.10;;;;;;5032692;28;20501;-72
2021/11/19 14:47:41;;;;;;;7.93;5.32;;;29.60;69.60;;;;;;5031454;28;20392;-72
2021/11/19 14:51:05;;;;;;;7.53;5.03;;;29.20;70.40;;;;;;5013304;28;20057;-72
2021/11/19 14:54:15;;;;;;;6.40;5.25;;;28.70;70.80;;;;;;5035502;28;20052;-72
2021/11/19 14:57:38;;;;;;;8.80;5.50;;;28.10;71.60;;;;;;5053041;28;20498;-72
2021/11/19 15:01:07;;;;;;;8.10;6.13;;;27.70;72.80;;;;;;5030677;28;20044;-71
2021/11/19 15:04:19;;;;;;;9.40;6.50;;;27.00;73.30;;;;;;5031482;28;20033;-71
2021/11/19 15:07:40;;;;;;;12.05;5.82;;;26.50;74.80;;;;;;5026832;28;20049;-71
2021/11/19 15:10:59;;;;;;;7.75;6.13;;;26.00;76.20;;;;;;5031748;28;20388;-71
2021/11/19 15:14:18;;;;;;;9.38;6.13;;;25.50;77.60;;;;;;5029892;28;20403;-71
2021/11/19 15:17:31;;;;;;;9.15;6.05;;;25.20;78.70;;;;;;5023062;28;20064;-71
2021/11/19 15:20:40;;;;;;;7.80;5.70;;;24.90;79.60;;;;;;5030754;28;20035;-71
2021/11/19 15:23:51;;;;;;;10.15;7.20;;;24.60;79.90;;;;;;5031336;28;20057;-71
2021/11/19 15:26:58;;;;;;;12.63;7.47;;;24.20;80.60;;;;;;5013815;28;20049;-71
2021/11/19 15:30:35;;;;;;;10.30;7.13;;;23.70;82.30;;;;;;5031111;28;20048;-71
2021/11/19 15:34:01;;;;;;;14.77;7.80;;;23.10;84.50;;;;;;5028392;28;20044;-71
2021/11/19 15:37:11;;;;;;;21.60;10.55;;;22.20;86.20;;;;;;5028669;28;20049;-71
2021/11/19 15:40:28;;;;;;;27.85;18.15;;;21.10;89.50;;;;;;5028745;28;20048;-70
2021/11/19 15:43:34;;;;;;;33.78;19.48;;;20.10;91.50;;;;;;5023092;28;20036;-71
2021/11/19 15:46:42;;;;;;;36.20;20.80;;;19.30;92.80;;;;;;5031100;28;20511;-71
2021/11/19 15:49:50;;;;;;;46.22;23.55;;;18.60;94.00;;;;;;5027329;28;20045;-71
2021/11/19 15:53:00;;;;;;;37.22;21.38;;;18.00;95.30;;;;;;5029497;28;20052;-71
2021/11/19 15:56:23;;;;;;;29.50;20.33;;;17.50;96.80;;;;;;5028842;28;20041;-71
2021/11/19 15:59:38;;;;;;;27.90;14.38;;;17.10;98.10;;;;;;5029593;28;20048;-71
2021/11/19 16:03:00;;;;;;;21.13;13.13;;;16.70;99.90;;;;;;5030906;28;20045;-71
2021/11/19 16:06:31;;;;;;;20.48;13.30;;;16.40;99.90;;;;;;5021422;28;20083;-71
2021/11/19 16:10:03;;;;;;;21.80;13.50;;;16.10;99.90;;;;;;5028425;28;20037;-70
2021/11/19 16:13:10;;;;;;;23.92;12.80;;;15.80;99.90;;;;;;5024966;28;20073;-70
2021/11/19 16:16:21;;;;;;;39.38;23.35;;;15.60;99.90;;;;;;5029486;28;20040;-70
2021/11/19 16:19:25;;;;;;;34.20;18.85;;;15.30;99.90;;;;;;5028117;28;20045;-70
2021/11/19 16:22:31;;;;;;;33.55;17.92;;;15.20;99.90;;;;;;5025558;28;20416;-70
2021/11/19 16:25:36;;;;;;;28.70;14.77;;;15.00;99.90;;;;;;5030868;28;20064;-70
2021/11/19 16:28:41;;;;;;;24.77;13.38;;;14.90;99.90;;;;;;5027105;28;20048;-70
2021/11/19 16:31:45;;;;;;;19.92;11.93;;;14.80;99.90;;;;;;5030090;28;20068;-70
2021/11/19 16:34:50;;;;;;;20.40;12.20;;;14.70;99.90;;;;;;5029896;28;20499;-70
2021/11/19 16:37:54;;;;;;;22.73;14.60;;;14.70;99.90;;;;;;5030898;28;20056;-70
2021/11/19 16:40:59;;;;;;;27.60;14.60;;;14.60;99.90;;;;;;5029381;28;20510;-70